Time;durP1;ratioP1;P1;durP2;ratioP2;P2;SDS_P1;SDS_P2;PMS_P1;PMS_P2;Temp;Humidity;BMP_temperature;BMP_pressure;BME280_temperature;BME280_humidity;BME280_pressure;Samples;Min_cycle;Max_cycle;Signal;HPM_P1;HPM_P2
2023/04/17 00:00:14;;;;;;;40.83;20.25;;;8.70;99.90;;;;;;4933798;28;20494;-68
2023/04/17 00:02:39;;;;;;;43.63;21.33;;;8.70;99.90;;;;;;4953766;28;20045;-68
2023/04/17 00:05:07;;;;;;;50.03;22.55;;;8.70;99.90;;;;;;4958893;28;20086;-67
2023/04/17 00:07:33;;;;;;;44.33;22.70;;;8.70;99.90;;;;;;4967669;28;20505;-68
2023/04/17 00:09:59;;;;;;;41.97;21.60;;;8.70;99.90;;;;;;4935648;28;20054;-67
2023/04/17 00:12:25;;;;;;;41.05;17.98;;;8.70;99.90;;;;;;4957990;28;20109;-68
2023/04/17 00:14:51;;;;;;;43.00;21.10;;;8.70;99.90;;;;;;4956224;28;20042;-68
2023/04/17 00:17:16;;;;;;;37.15;18.15;;;8.70;99.90;;;;;;4938342;28;20038;-68
2023/04/17 00:19:42;;;;;;;38.17;19.88;;;8.70;99.90;;;;;;4944140;28;20050;-67
2023/04/17 00:22:07;;;;;;;42.40;19.77;;;8.70;99.90;;;;;;4945816;29;20050;-68
2023/04/17 00:24:33;;;;;;;36.95;17.70;;;8.70;99.90;;;;;;4953932;29;20036;-68
2023/04/17 00:26:58;;;;;;;43.42;21.38;;;8.70;99.90;;;;;;4953470;28;20043;-68
2023/04/17 00:29:24;;;;;;;44.33;22.70;;;8.70;99.90;;;;;;4940060;28;20038;-68
2023/04/17 00:31:49;;;;;;;44.50;22.50;;;8.70;99.90;;;;;;4956988;28;20043;-68
2023/04/17 00:34:15;;;;;;;42.33;19.60;;;8.70;99.90;;;;;;4961224;28;20038;-67
2023/04/17 00:36:40;;;;;;;40.63;20.58;;;8.70;99.90;;;;;;4947318;28;20049;-69
2023/04/17 00:39:06;;;;;;;38.30;17.67;;;8.60;99.90;;;;;;4963811;28;20039;-68
2023/04/17 00:41:31;;;;;;;30.15;14.93;;;8.70;99.90;;;;;;4965338;28;20047;-68
2023/04/17 00:43:57;;;;;;;36.97;18.08;;;8.60;99.90;;;;;;4959875;28;20055;-67
2023/04/17 00:46:22;;;;;;;41.80;20.48;;;8.60;99.90;;;;;;4956325;28;20050;-68
2023/04/17 00:48:48;;;;;;;47.03;21.70;;;8.60;99.90;;;;;;4971323;28;20121;-68
2023/04/17 00:51:14;;;;;;;44.38;20.63;;;8.60;99.90;;;;;;4938037;28;20042;-68
2023/04/17 00:53:40;;;;;;;41.80;22.15;;;8.60;99.90;;;;;;4960510;28;20498;-68
2023/04/17 00:56:07;;;;;;;48.22;20.88;;;8.60;99.90;;;;;;4970768;28;20489;-68
2023/04/17 00:58:34;;;;;;;45.90;20.92;;;8.60;99.90;;;;;;4972018;28;20560;-68
2023/04/17 01:01:00;;;;;;;45.67;22.38;;;8.70;99.90;;;;;;4967713;28;20560;-68
2023/04/17 01:03:28;;;;;;;48.60;22.63;;;8.60;99.90;;;;;;4971806;28;20038;-67
2023/04/17 01:05:55;;;;;;;47.65;21.50;;;8.60;99.90;;;;;;4956241;28;20102;-68
2023/04/17 01:08:21;;;;;;;49.30;21.92;;;8.60;99.90;;;;;;4958188;28;20035;-68
2023/04/17 01:10:47;;;;;;;54.83;24.75;;;8.70;99.90;;;;;;4955383;28;20493;-68
2023/04/17 01:13:12;;;;;;;47.75;20.90;;;8.70;99.90;;;;;;4960676;28;20131;-68
2023/04/17 01:15:38;;;;;;;48.33;22.33;;;8.70;99.90;;;;;;4934701;28;20379;-67
2023/04/17 01:18:04;;;;;;;50.17;22.95;;;8.60;99.90;;;;;;4944235;28;20494;-68
2023/04/17 01:20:31;;;;;;;50.03;23.40;;;8.60;99.90;;;;;;4957294;28;20516;-67
2023/04/17 01:22:57;;;;;;;49.83;22.98;;;8.60;99.90;;;;;;4966828;28;20085;-67
2023/04/17 01:25:23;;;;;;;53.72;22.45;;;8.60;99.90;;;;;;4959691;28;20043;-68
2023/04/17 01:27:49;;;;;;;55.03;23.60;;;8.60;99.90;;;;;;4969015;28;20445;-68
2023/04/17 01:30:15;;;;;;;53.10;22.80;;;8.60;99.90;;;;;;4970638;28;20375;-68
2023/04/17 01:32:41;;;;;;;55.40;23.15;;;8.60;99.90;;;;;;4961375;28;20046;-68
2023/04/17 01:35:07;;;;;;;57.78;25.85;;;8.60;99.90;;;;;;4957893;28;20387;-67
2023/04/17 01:37:32;;;;;;;54.70;25.38;;;8.60;99.90;;;;;;4963710;28;20494;-67
2023/04/17 01:39:58;;;;;;;44.88;19.15;;;8.60;99.90;;;;;;4967264;28;20124;-68
2023/04/17 01:42:24;;;;;;;53.65;21.92;;;8.60;99.90;;;;;;4964599;28;20038;-68
2023/04/17 01:44:50;;;;;;;53.25;22.75;;;8.60;99.90;;;;;;4954953;28;20070;-68
2023/04/17 01:47:16;;;;;;;57.83;24.70;;;8.60;99.90;;;;;;4972510;28;20042;-69
2023/04/17 01:49:41;;;;;;;56.55;24.45;;;8.60;99.90;;;;;;4942793;28;20046;-68
2023/04/17 01:52:07;;;;;;;50.75;22.27;;;8.60;99.90;;;;;;4945368;28;20241;-68
2023/04/17 01:54:32;;;;;;;51.10;23.30;;;8.60;99.90;;;;;;4964740;28;20106;-68
2023/04/17 01:56:58;;;;;;;54.88;24.20;;;8.60;99.90;;;;;;4970801;28;20039;-68
2023/04/17 01:59:24;;;;;;;54.13;24.80;;;8.60;99.90;;;;;;4947546;28;20039;-68
2023/04/17 02:01:50;;;;;;;48.42;20.95;;;8.60;99.90;;;;;;4967682;28;20106;-67
2023/04/17 02:04:16;;;;;;;55.88;23.65;;;8.60;99.90;;;;;;4956581;29;20549;-68
2023/04/17 02:06:41;;;;;;;54.17;22.98;;;8.60;99.90;;;;;;4965878;28;20039;-68
2023/04/17 02:09:07;;;;;;;53.80;24.75;;;8.60;99.90;;;;;;4964456;28;20035;-68
2023/04/17 02:11:33;;;;;;;45.05;20.55;;;8.50;99.90;;;;;;4940806;29;20042;-68
2023/04/17 02:13:59;;;;;;;58.92;25.25;;;8.60;99.90;;;;;;4948502;28;20050;-68
2023/04/17 02:16:25;;;;;;;57.85;25.85;;;8.50;99.90;;;;;;4969835;28;20035;-68
2023/04/17 02:18:50;;;;;;;52.35;24.38;;;8.50;99.90;;;;;;4966207;28;20045;-68
2023/04/17 02:21:16;;;;;;;54.58;25.05;;;8.60;99.90;;;;;;4958231;28;20041;-68
2023/04/17 02:23:42;;;;;;;51.25;21.15;;;8.60;99.90;;;;;;4965393;28;20130;-68
2023/04/17 02:26:07;;;;;;;51.47;23.00;;;8.60;99.90;;;;;;4961887;28;20042;-68
2023/04/17 02:28:33;;;;;;;40.65;18.73;;;8.60;99.90;;;;;;4961642;28;20545;-67
2023/04/17 02:30:59;;;;;;;54.33;24.25;;;8.60;99.90;;;;;;4962967;28;20046;-68
2023/04/17 02:33:24;;;;;;;53.17;22.55;;;8.60;99.90;;;;;;4957662;28;20074;-68
2023/04/17 02:35:50;;;;;;;50.47;23.73;;;8.60;99.90;;;;;;4975064;28;20034;-68
2023/04/17 02:38:16;;;;;;;57.40;24.63;;;8.60;99.90;;;;;;4968858;28;20548;-68
2023/04/17 02:40:41;;;;;;;51.75;21.90;;;8.60;99.90;;;;;;4941836;29;20039;-68
2023/04/17 02:43:07;;;;;;;60.03;26.00;;;8.50;99.90;;;;;;4973238;28;20425;-68
2023/04/17 02:45:32;;;;;;;53.97;25.00;;;8.50;99.90;;;;;;4958018;28;20051;-68
2023/04/17 02:47:58;;;;;;;52.33;22.85;;;8.50;99.90;;;;;;4961190;28;20129;-68
2023/04/17 02:50:24;;;;;;;52.47;21.75;;;8.50;99.90;;;;;;4945061;28;20123;-68
2023/04/17 02:52:49;;;;;;;59.63;24.80;;;8.50;99.90;;;;;;4966705;28;20433;-68
2023/04/17 02:55:15;;;;;;;54.40;24.73;;;8.50;99.90;;;;;;4967800;28;20409;-69
2023/04/17 02:57:40;;;;;;;62.05;25.80;;;8.50;99.90;;;;;;4965080;28;20039;-68
2023/04/17 03:00:13;;;;;;;61.60;27.17;;;8.50;99.90;;;;;;4964600;28;20043;-68
2023/04/17 03:02:39;;;;;;;55.47;24.63;;;8.50;99.90;;;;;;4955594;28;20035;-68
2023/04/17 03:05:05;;;;;;;51.42;20.92;;;8.50;99.90;;;;;;4955739;28;20046;-68
2023/04/17 03:07:31;;;;;;;54.65;24.45;;;8.50;99.90;;;;;;4963037;28;20122;-68
2023/04/17 03:09:57;;;;;;;55.78;25.75;;;8.50;99.90;;;;;;4970040;28;20406;-69
2023/04/17 03:12:23;;;;;;;57.08;25.52;;;8.50;99.90;;;;;;4962535;28;20046;-68
2023/04/17 03:14:50;;;;;;;58.08;25.80;;;8.50;99.90;;;;;;4972816;28;20117;-68
2023/04/17 03:17:16;;;;;;;44.17;18.80;;;8.50;99.90;;;;;;4974342;28;20031;-68
2023/04/17 03:19:41;;;;;;;56.65;26.60;;;8.50;99.90;;;;;;4971560;28;20038;-68
2023/04/17 03:22:07;;;;;;;58.50;26.48;;;8.50;99.90;;;;;;4945506;28;20035;-68
2023/04/17 03:24:33;;;;;;;55.47;26.17;;;8.40;99.90;;;;;;4954845;28;20061;-68
2023/04/17 03:27:01;;;;;;;57.88;25.90;;;8.40;99.90;;;;;;4945172;28;20047;-68
2023/04/17 03:29:26;;;;;;;64.75;27.45;;;8.40;99.90;;;;;;4944812;28;20158;-68
2023/04/17 03:31:52;;;;;;;59.78;25.83;;;8.40;99.90;;;;;;4947179;28;20137;-68
2023/04/17 03:34:20;;;;;;;53.00;24.40;;;8.40;99.90;;;;;;4956950;28;20129;-68
2023/04/17 03:36:46;;;;;;;63.15;28.10;;;8.50;99.90;;;;;;4953077;28;20066;-67
2023/04/17 03:39:11;;;;;;;61.72;27.70;;;8.50;99.90;;;;;;4963501;28;20482;-68
2023/04/17 03:41:37;;;;;;;65.32;28.67;;;8.40;99.90;;;;;;4954653;28;20046;-68
2023/04/17 03:44:03;;;;;;;60.42;28.70;;;8.50;99.90;;;;;;4966952;28;20042;-68
2023/04/17 03:46:29;;;;;;;69.10;30.05;;;8.50;99.90;;;;;;4939318;29;20538;-68
2023/04/17 03:48:55;;;;;;;62.20;28.33;;;8.50;99.90;;;;;;4961752;28;20126;-68
2023/04/17 03:51:20;;;;;;;67.88;29.85;;;8.50;99.90;;;;;;4941764;28;20039;-67
2023/04/17 03:53:46;;;;;;;70.13;29.17;;;8.50;99.90;;;;;;4950083;28;20054;-68
2023/04/17 03:56:12;;;;;;;57.90;26.40;;;8.50;99.90;;;;;;4957352;28;20418;-68
2023/04/17 03:58:37;;;;;;;63.67;28.23;;;8.50;99.90;;;;;;4949696;29;20045;-67
2023/04/17 04:01:03;;;;;;;56.67;24.13;;;8.50;99.90;;;;;;4950975;28;20039;-68
2023/04/17 04:03:29;;;;;;;66.45;29.30;;;8.50;99.90;;;;;;4953584;28;20070;-68
2023/04/17 04:05:55;;;;;;;65.20;29.50;;;8.50;99.90;;;;;;4955392;28;20145;-68
2023/04/17 04:08:20;;;;;;;61.75;27.08;;;8.50;99.90;;;;;;4967843;28;20482;-68
2023/04/17 04:10:46;;;;;;;68.78;28.95;;;8.50;99.90;;;;;;4961767;28;20042;-68
2023/04/17 04:13:12;;;;;;;59.25;27.67;;;8.40;99.90;;;;;;4969487;28;20046;-68
2023/04/17 04:15:38;;;;;;;63.35;26.38;;;8.40;99.90;;;;;;4966681;28;20073;-68
2023/04/17 04:18:04;;;;;;;75.85;31.80;;;8.40;99.90;;;;;;4950341;28;20042;-68
2023/04/17 04:20:29;;;;;;;71.30;30.75;;;8.40;99.90;;;;;;4953859;28;20379;-68
2023/04/17 04:22:56;;;;;;;69.68;31.20;;;8.50;99.90;;;;;;4935616;28;20071;-68
2023/04/17 04:25:25;;;;;;;77.65;31.15;;;8.40;99.90;;;;;;4964957;28;20034;-68
2023/04/17 04:27:51;;;;;;;57.60;24.52;;;8.40;99.90;;;;;;4964053;28;20049;-68
2023/04/17 04:30:18;;;;;;;62.47;27.50;;;8.40;99.90;;;;;;4952420;28;20042;-68
2023/04/17 04:32:44;;;;;;;66.47;29.85;;;8.40;99.90;;;;;;4936230;29;20130;-67
2023/04/17 04:35:14;;;;;;;65.28;28.95;;;8.40;99.90;;;;;;4952306;28;20031;-67
2023/04/17 04:37:45;;;;;;;70.28;31.10;;;8.40;99.90;;;;;;4941901;29;20043;-68
2023/04/17 04:40:13;;;;;;;65.25;29.33;;;8.40;99.90;;;;;;4945902;28;20113;-68
2023/04/17 04:42:41;;;;;;;68.53;29.15;;;8.40;99.90;;;;;;4941116;29;20085;-68
2023/04/17 04:45:08;;;;;;;66.85;29.25;;;8.40;99.90;;;;;;4936692;28;20043;-68
2023/04/17 04:47:34;;;;;;;59.63;27.88;;;8.40;99.90;;;;;;4955009;28;20093;-67
2023/04/17 04:49:59;;;;;;;70.97;29.55;;;8.40;99.90;;;;;;4953113;28;20043;-68
2023/04/17 04:52:28;;;;;;;64.55;27.45;;;8.40;99.90;;;;;;4958605;28;20117;-67
2023/04/17 04:54:53;;;;;;;60.17;27.88;;;8.40;99.90;;;;;;4971018;28;20041;-68
2023/04/17 04:57:19;;;;;;;51.67;23.00;;;8.40;99.90;;;;;;4949411;28;20039;-68
2023/04/17 04:59:44;;;;;;;61.60;28.75;;;8.40;99.90;;;;;;4963321;28;20131;-67
2023/04/17 05:02:10;;;;;;;63.63;24.27;;;8.40;99.90;;;;;;4953104;28;20071;-68
2023/04/17 05:04:35;;;;;;;60.70;23.67;;;8.40;99.90;;;;;;4953646;28;20397;-67
2023/04/17 05:07:03;;;;;;;64.68;27.10;;;8.40;99.90;;;;;;4940081;28;20047;-68
2023/04/17 05:09:30;;;;;;;62.17;26.95;;;8.30;99.90;;;;;;4936828;28;20050;-68
2023/04/17 05:11:56;;;;;;;49.13;19.80;;;8.40;99.90;;;;;;4968586;28;20046;-67
2023/04/17 05:14:22;;;;;;;64.65;26.15;;;8.40;99.90;;;;;;4946493;28;20159;-67
2023/04/17 05:16:47;;;;;;;58.45;26.15;;;8.40;99.90;;;;;;4956018;28;20058;-68
2023/04/17 05:19:13;;;;;;;60.28;25.23;;;8.40;99.90;;;;;;4940718;28;20042;-67
2023/04/17 05:21:38;;;;;;;56.95;25.88;;;8.40;99.90;;;;;;4941935;28;20055;-67
2023/04/17 05:24:04;;;;;;;56.25;23.77;;;8.40;99.90;;;;;;4937676;28;20146;-67
2023/04/17 05:26:30;;;;;;;50.47;19.02;;;8.40;99.90;;;;;;4962571;28;20038;-68
2023/04/17 05:28:55;;;;;;;63.33;26.65;;;8.50;99.90;;;;;;4962879;28;20076;-68
2023/04/17 05:31:21;;;;;;;57.47;23.88;;;8.40;99.90;;;;;;4949663;28;20035;-67
2023/04/17 05:33:46;;;;;;;56.38;25.35;;;8.40;99.90;;;;;;4955730;28;20051;-67
2023/04/17 05:36:13;;;;;;;53.72;22.58;;;8.40;99.90;;;;;;4961267;28;20047;-67
2023/04/17 05:38:38;;;;;;;54.42;23.60;;;8.40;99.90;;;;;;4943971;29;20051;-67
2023/04/17 05:41:06;;;;;;;56.05;24.50;;;8.40;99.90;;;;;;4961626;28;20047;-68
2023/04/17 05:43:32;;;;;;;63.88;26.48;;;8.40;99.90;;;;;;4954646;29;20422;-68
2023/04/17 05:45:58;;;;;;;53.78;24.50;;;8.50;99.90;;;;;;4973116;28;20045;-68
2023/04/17 05:48:23;;;;;;;59.25;27.17;;;8.50;99.90;;;;;;4955386;28;20051;-68
2023/04/17 05:50:49;;;;;;;63.15;25.23;;;8.50;99.90;;;;;;4968798;28;20133;-68
2023/04/17 05:53:15;;;;;;;55.78;23.33;;;8.60;99.90;;;;;;4968070;28;20146;-68
2023/04/17 05:55:41;;;;;;;57.53;25.30;;;8.60;99.90;;;;;;4962882;28;20058;-68
2023/04/17 05:58:06;;;;;;;60.55;27.17;;;8.60;99.90;;;;;;4945305;28;20094;-68
2023/04/17 06:00:32;;;;;;;58.88;24.80;;;8.60;99.90;;;;;;4952405;29;20122;-69
2023/04/17 06:03:00;;;;;;;62.15;27.00;;;8.70;99.90;;;;;;4972595;28;20194;-68
2023/04/17 06:05:26;;;;;;;53.70;25.35;;;8.70;99.90;;;;;;4975547;28;20490;-68
2023/04/17 06:07:51;;;;;;;55.30;25.45;;;8.70;99.90;;;;;;4964699;28;20046;-68
2023/04/17 06:10:17;;;;;;;42.50;18.95;;;8.70;99.90;;;;;;4952893;28;20039;-68
2023/04/17 06:12:42;;;;;;;58.92;25.38;;;8.70;99.90;;;;;;4942099;29;20051;-68
2023/04/17 06:15:09;;;;;;;56.55;22.75;;;8.70;99.90;;;;;;4961341;28;20116;-68
2023/04/17 06:17:36;;;;;;;61.50;27.30;;;8.80;99.90;;;;;;4967326;28;20041;-68
2023/04/17 06:20:03;;;;;;;51.83;22.63;;;8.80;99.90;;;;;;4955426;28;20054;-68
2023/04/17 06:22:29;;;;;;;54.10;24.08;;;8.80;99.90;;;;;;4951310;28;20105;-68
2023/04/17 06:24:55;;;;;;;54.83;23.00;;;8.80;99.90;;;;;;4964075;28;20457;-68
2023/04/17 06:27:20;;;;;;;58.97;28.05;;;8.90;99.90;;;;;;4964281;28;20517;-68
2023/04/17 06:29:46;;;;;;;59.00;25.42;;;8.90;99.90;;;;;;4970451;28;20116;-68
2023/04/17 06:32:12;;;;;;;54.65;23.95;;;8.90;99.90;;;;;;4962971;28;20051;-68
2023/04/17 06:34:38;;;;;;;58.58;25.85;;;9.00;99.90;;;;;;4968638;28;20050;-67
2023/04/17 06:37:03;;;;;;;52.60;23.10;;;9.00;99.90;;;;;;4972516;28;20066;-68
2023/04/17 06:39:30;;;;;;;57.83;25.95;;;9.10;99.90;;;;;;4953121;28;20066;-68
2023/04/17 06:41:57;;;;;;;52.20;25.02;;;9.10;99.90;;;;;;4950105;28;20413;-68
2023/04/17 06:44:22;;;;;;;55.35;25.83;;;9.10;99.90;;;;;;4952430;29;20725;-68
2023/04/17 06:46:51;;;;;;;50.22;23.60;;;9.10;99.90;;;;;;4953062;28;20138;-67
2023/04/17 06:49:17;;;;;;;62.05;26.77;;;9.20;99.90;;;;;;4964667;28;20066;-68
2023/04/17 06:51:44;;;;;;;54.58;25.55;;;9.30;99.90;;;;;;4966412;28;20630;-68
2023/04/17 06:54:10;;;;;;;56.75;26.25;;;9.30;99.90;;;;;;4957678;28;20046;-68
2023/04/17 06:56:36;;;;;;;52.45;24.05;;;9.40;99.90;;;;;;4946230;28;20046;-67
2023/04/17 06:59:01;;;;;;;54.35;25.35;;;9.40;99.90;;;;;;4963989;28;20462;-67
2023/04/17 07:01:28;;;;;;;53.08;25.50;;;9.40;99.90;;;;;;4941234;28;20058;-68
2023/04/17 07:03:53;;;;;;;44.53;23.67;;;9.50;99.90;;;;;;4949116;28;20078;-67
2023/04/17 07:06:19;;;;;;;48.78;24.58;;;9.50;99.90;;;;;;4971296;28;20073;-68
2023/04/17 07:08:44;;;;;;;47.47;22.95;;;9.60;99.90;;;;;;4950112;29;20133;-68
2023/04/17 07:11:10;;;;;;;48.88;24.27;;;9.60;99.90;;;;;;4955244;29;20573;-67
2023/04/17 07:13:36;;;;;;;44.60;21.70;;;9.60;99.90;;;;;;4960957;28;20046;-67
2023/04/17 07:16:02;;;;;;;43.72;19.58;;;9.70;99.90;;;;;;4964411;28;20066;-68
2023/04/17 07:18:30;;;;;;;44.38;21.30;;;9.70;99.90;;;;;;4957099;28;20047;-67
2023/04/17 07:20:56;;;;;;;42.97;20.05;;;9.70;99.90;;;;;;4946136;28;20049;-68
2023/04/17 07:23:22;;;;;;;43.65;22.10;;;9.80;99.90;;;;;;4956366;28;20039;-68
2023/04/17 07:25:47;;;;;;;46.42;23.08;;;9.90;99.90;;;;;;4965765;28;20039;-68
2023/04/17 07:28:13;;;;;;;43.58;21.00;;;10.00;99.90;;;;;;4973949;28;20047;-68
2023/04/17 07:30:40;;;;;;;45.67;23.10;;;10.10;99.90;;;;;;4949977;28;20079;-68
2023/04/17 07:33:06;;;;;;;35.90;17.60;;;10.20;99.90;;;;;;4939351;28;20076;-68
2023/04/17 07:35:31;;;;;;;35.60;16.67;;;10.20;99.90;;;;;;4965931;28;20065;-68
2023/04/17 07:37:58;;;;;;;49.03;24.65;;;10.30;99.90;;;;;;4950186;28;20035;-68
2023/04/17 07:40:23;;;;;;;43.75;22.13;;;10.30;99.90;;;;;;4968526;28;20039;-68
2023/04/17 07:42:49;;;;;;;47.20;21.83;;;10.50;99.90;;;;;;4940950;29;20513;-68
2023/04/17 07:45:15;;;;;;;46.50;19.15;;;10.60;99.90;;;;;;4953821;28;20039;-68
2023/04/17 07:47:40;;;;;;;47.33;24.40;;;10.60;99.90;;;;;;4947717;28;20030;-68
2023/04/17 07:50:06;;;;;;;41.70;21.45;;;10.60;99.90;;;;;;4945540;29;20654;-68
2023/04/17 07:52:32;;;;;;;43.70;23.10;;;10.70;99.90;;;;;;4937382;29;20039;-68
2023/04/17 07:54:57;;;;;;;45.10;24.85;;;10.60;99.90;;;;;;4959614;28;20035;-68
2023/04/17 07:57:25;;;;;;;45.33;25.25;;;10.70;99.90;;;;;;4947470;29;20050;-67
2023/04/17 07:59:52;;;;;;;46.70;25.92;;;10.90;99.90;;;;;;4969210;28;20524;-68
2023/04/17 08:02:18;;;;;;;44.75;25.17;;;11.00;99.90;;;;;;4973803;28;20219;-68
2023/04/17 08:04:45;;;;;;;43.92;21.25;;;11.10;99.90;;;;;;4950690;28;20039;-67
2023/04/17 08:07:11;;;;;;;48.58;25.20;;;11.10;99.90;;;;;;4967819;28;20132;-68
2023/04/17 08:09:37;;;;;;;46.85;25.60;;;11.10;99.90;;;;;;4963020;28;20544;-67
2023/04/17 08:12:03;;;;;;;43.45;23.08;;;11.10;99.90;;;;;;4955007;28;20123;-67
2023/04/17 08:14:28;;;;;;;51.70;26.02;;;11.20;99.90;;;;;;4941942;28;20126;-68
2023/04/17 08:16:54;;;;;;;40.33;21.33;;;11.20;99.90;;;;;;4936942;28;20094;-69
2023/04/17 08:19:20;;;;;;;43.83;25.15;;;11.20;99.90;;;;;;4952572;28;20117;-68
2023/04/17 08:21:47;;;;;;;43.55;23.50;;;11.20;99.90;;;;;;4962805;28;20050;-69
2023/04/17 08:24:12;;;;;;;45.45;24.17;;;11.30;99.90;;;;;;4972615;28;20046;-69
2023/04/17 08:26:38;;;;;;;44.30;23.85;;;11.30;99.90;;;;;;4970360;28;20039;-68
2023/04/17 08:29:03;;;;;;;44.78;26.08;;;11.30;99.90;;;;;;4949788;28;20043;-68
2023/04/17 08:31:29;;;;;;;45.63;25.38;;;11.30;99.90;;;;;;4958061;28;20425;-68
2023/04/17 08:33:56;;;;;;;46.92;25.15;;;11.30;99.90;;;;;;4973587;28;20058;-68
2023/04/17 08:36:21;;;;;;;40.45;21.63;;;11.30;99.90;;;;;;4949256;28;20035;-69
2023/04/17 08:38:47;;;;;;;42.85;21.80;;;11.20;99.90;;;;;;4965638;28;20037;-68
2023/04/17 08:41:20;;;;;;;43.05;22.17;;;11.20;99.90;;;;;;4941885;28;20047;-67
2023/04/17 08:43:49;;;;;;;46.60;23.45;;;11.10;99.90;;;;;;4959113;28;20051;-67
2023/04/17 08:46:17;;;;;;;47.05;25.75;;;11.20;99.90;;;;;;4944757;28;20468;-68
2023/04/17 08:48:43;;;;;;;47.45;24.90;;;11.30;99.90;;;;;;4962697;28;20058;-68
2023/04/17 08:51:09;;;;;;;48.72;25.00;;;11.50;99.90;;;;;;4947510;28;20417;-68
2023/04/17 08:53:34;;;;;;;48.33;24.48;;;11.50;99.90;;;;;;4963724;28;20039;-67
2023/04/17 08:56:04;;;;;;;51.35;25.02;;;11.50;99.90;;;;;;4938833;29;20051;-68
2023/04/17 08:58:34;;;;;;;44.70;24.30;;;11.60;99.90;;;;;;4936196;29;20032;-68
2023/04/17 09:01:11;;;;;;;46.28;23.80;;;11.60;99.90;;;;;;4941845;28;20054;-68
2023/04/17 09:03:47;;;;;;;50.13;26.60;;;11.60;99.90;;;;;;4961593;28;20071;-68
2023/04/17 09:06:14;;;;;;;48.13;25.40;;;11.80;99.90;;;;;;4961021;28;20038;-68
2023/04/17 09:08:55;;;;;;;49.03;26.17;;;12.00;99.90;;;;;;4952281;28;20122;-68
2023/04/17 09:11:21;;;;;;;;;;;12.20;99.90;;;;;;4965393;28;20053;-68
2023/04/17 09:13:46;;;;;;;45.25;25.20;;;12.30;99.90;;;;;;4952217;28;20369;-68
2023/04/17 09:16:14;;;;;;;44.50;22.95;;;12.40;99.90;;;;;;4965748;28;20401;-68
2023/04/17 09:18:41;;;;;;;47.42;26.05;;;12.50;99.90;;;;;;4958369;28;20035;-68
2023/04/17 09:21:08;;;;;;;46.78;26.80;;;12.50;99.90;;;;;;4960486;28;20050;-68
2023/04/17 09:23:58;;;;;;;48.25;26.48;;;12.70;99.90;;;;;;4966426;28;20409;-68
2023/04/17 09:26:25;;;;;;;49.15;27.38;;;12.80;99.90;;;;;;4966675;28;20102;-69
2023/04/17 09:29:07;;;;;;;46.25;26.08;;;12.90;99.90;;;;;;4964449;28;20098;-68
2023/04/17 09:31:33;;;;;;;39.58;22.10;;;13.00;99.90;;;;;;4953236;29;20075;-68
2023/04/17 09:34:10;;;;;;;45.20;25.55;;;13.10;99.90;;;;;;4958388;28;20086;-69
2023/04/17 09:36:37;;;;;;;46.80;25.85;;;13.10;99.90;;;;;;4945854;28;20043;-69
2023/04/17 09:39:16;;;;;;;48.40;28.50;;;13.30;99.90;;;;;;4961616;28;20047;-68
2023/04/17 09:41:42;;;;;;;50.47;28.92;;;13.50;99.90;;;;;;4964610;28;20545;-69
2023/04/17 09:44:08;;;;;;;49.33;27.50;;;13.60;99.90;;;;;;4954479;28;20043;-69
2023/04/17 09:46:44;;;;;;;49.85;30.38;;;13.60;99.90;;;;;;4959729;28;20042;-68
2023/04/17 09:49:35;;;;;;;44.17;28.98;;;13.60;99.90;;;;;;4951356;28;20042;-68
2023/04/17 09:52:01;;;;;;;49.60;28.73;;;13.70;99.90;;;;;;4943317;28;20079;-68
2023/04/17 09:54:30;;;;;;;47.38;28.40;;;13.90;99.90;;;;;;4959415;28;20047;-68
2023/04/17 09:56:56;;;;;;;43.33;28.00;;;14.00;99.90;;;;;;4964213;28;20118;-68
2023/04/17 09:59:23;;;;;;;45.67;27.90;;;14.10;99.90;;;;;;4954566;28;20127;-68
2023/04/17 10:01:50;;;;;;;43.75;27.50;;;14.40;99.90;;;;;;4936773;28;20054;-68
2023/04/17 10:04:17;;;;;;;44.17;27.83;;;14.40;99.90;;;;;;4963913;28;20121;-68
2023/04/17 10:06:43;;;;;;;40.92;26.58;;;14.30;99.90;;;;;;4963526;28;20117;-68
2023/04/17 10:09:09;;;;;;;43.75;27.38;;;14.40;99.90;;;;;;4942702;28;20066;-68
2023/04/17 10:11:40;;;;;;;40.97;25.50;;;14.60;99.90;;;;;;4950641;28;20043;-68
2023/04/17 10:14:18;;;;;;;44.80;27.33;;;14.60;99.90;;;;;;4963707;28;20039;-67
2023/04/17 10:16:46;;;;;;;42.38;27.27;;;14.60;99.90;;;;;;4963417;28;20043;-68
2023/04/17 10:19:31;;;;;;;40.38;24.67;;;14.70;99.90;;;;;;4962829;28;20047;-67
2023/04/17 10:22:16;;;;;;;39.30;26.35;;;14.60;99.90;;;;;;4943581;28;20195;-68
2023/04/17 10:24:43;;;;;;;36.85;25.65;;;14.50;99.90;;;;;;4957740;28;20055;-68
2023/04/17 10:27:24;;;;;;;36.38;25.98;;;14.40;99.90;;;;;;4967292;28;20051;-68
2023/04/17 10:29:58;;;;;;;38.53;25.75;;;14.40;99.90;;;;;;4960834;28;20074;-68
2023/04/17 10:32:31;;;;;;;32.10;21.52;;;14.80;99.90;;;;;;4963936;28;20036;-68
2023/04/17 10:34:58;;;;;;;34.08;22.17;;;15.00;99.90;;;;;;4941449;29;20118;-68
2023/04/17 10:37:51;;;;;;;33.55;23.05;;;15.10;99.90;;;;;;4955896;29;20031;-67
2023/04/17 10:40:21;;;;;;;33.42;21.65;;;15.50;99.90;;;;;;4957892;28;21248;-67
2023/04/17 10:43:09;;;;;;;30.15;19.17;;;15.60;99.90;;;;;;4958280;28;20047;-67
2023/04/17 10:46:01;;;;;;;28.13;19.90;;;15.60;99.90;;;;;;4963210;28;20047;-67
2023/04/17 10:48:28;;;;;;;29.20;20.85;;;15.70;99.90;;;;;;4955322;29;20180;-68
2023/04/17 10:50:55;;;;;;;29.98;19.98;;;15.90;99.90;;;;;;4936247;28;20047;-67
2023/04/17 10:53:43;;;;;;;29.65;21.25;;;15.90;99.90;;;;;;4964857;28;20039;-67
2023/04/17 10:56:11;;;;;;;27.88;18.95;;;16.20;99.90;;;;;;4947438;29;20644;-68
2023/04/17 10:58:58;;;;;;;24.13;17.85;;;16.30;99.90;;;;;;4953342;28;20035;-68
2023/04/17 11:01:29;;;;;;;26.88;19.38;;;16.30;99.90;;;;;;4963174;28;20043;-67
2023/04/17 11:03:55;;;;;;;25.75;17.85;;;16.40;99.90;;;;;;4941322;29;20129;-67
2023/04/17 11:06:21;;;;;;;23.75;15.40;;;16.50;99.90;;;;;;4937249;28;20042;-67
2023/04/17 11:08:48;;;;;;;23.02;16.85;;;16.40;99.90;;;;;;4948821;28;20073;-68
2023/04/17 11:11:16;;;;;;;25.20;17.25;;;16.80;99.90;;;;;;4955125;28;20094;-67
2023/04/17 11:13:45;;;;;;;21.95;15.15;;;17.10;99.90;;;;;;4962251;28;20039;-68
2023/04/17 11:16:12;;;;;;;19.95;13.52;;;17.40;99.90;;;;;;4943237;28;20047;-68
2023/04/17 11:18:37;;;;;;;25.33;15.48;;;17.00;99.90;;;;;;4963243;28;20040;-67
2023/04/17 11:21:03;;;;;;;18.83;14.55;;;16.80;99.90;;;;;;4942402;28;20039;-68
2023/04/17 11:23:32;;;;;;;21.92;15.55;;;16.80;99.90;;;;;;4951935;28;20047;-68
2023/04/17 11:25:59;;;;;;;20.52;14.98;;;16.70;99.90;;;;;;4935230;28;20054;-68
2023/04/17 11:28:24;;;;;;;20.90;15.80;;;16.60;99.90;;;;;;4972311;28;20039;-68
2023/04/17 11:30:50;;;;;;;26.02;15.60;;;16.40;99.90;;;;;;4958331;28;20046;-67
2023/04/17 11:33:16;;;;;;;22.55;14.95;;;16.50;99.90;;;;;;4956516;28;20039;-67
2023/04/17 11:35:42;;;;;;;21.38;16.33;;;16.80;99.90;;;;;;4962374;28;20043;-68
2023/04/17 11:38:10;;;;;;;23.48;15.63;;;17.00;99.90;;;;;;4971957;28;20039;-68
2023/04/17 11:41:00;;;;;;;22.98;15.48;;;17.20;99.90;;;;;;4956602;28;20493;-68
2023/04/17 11:43:28;;;;;;;21.60;14.90;;;17.20;99.90;;;;;;4958011;28;20049;-68
2023/04/17 11:45:55;;;;;;;19.92;15.27;;;17.10;99.90;;;;;;4962268;28;20039;-68
2023/04/17 11:48:22;;;;;;;21.13;15.35;;;16.90;99.90;;;;;;4953152;28;20130;-67
2023/04/17 11:50:52;;;;;;;22.00;16.42;;;16.60;99.90;;;;;;4969010;28;20043;-68
2023/04/17 11:53:18;;;;;;;20.85;15.43;;;16.30;99.90;;;;;;4957335;28;20038;-68
2023/04/17 11:55:44;;;;;;;25.35;16.30;;;16.00;99.90;;;;;;4968214;28;20046;-68
2023/04/17 11:58:11;;;;;;;22.92;16.33;;;15.90;99.90;;;;;;4963984;28;20046;-68
2023/04/17 12:00:39;;;;;;;20.73;15.52;;;16.00;99.90;;;;;;4955785;28;20065;-68
2023/04/17 12:03:32;;;;;;;21.60;16.08;;;16.30;99.90;;;;;;4964795;28;20043;-68
2023/04/17 12:06:03;;;;;;;22.48;16.88;;;16.60;99.90;;;;;;4931371;28;20089;-67
2023/04/17 12:08:30;;;;;;;;;;;16.90;99.90;;;;;;4965595;28;20041;-67
2023/04/17 12:10:56;;;;;;;25.75;16.98;;;17.20;99.90;;;;;;4940189;29;20373;-68
2023/04/17 12:13:22;;;;;;;21.30;15.68;;;17.70;99.90;;;;;;4952009;28;20075;-68
2023/04/17 12:15:48;;;;;;;21.13;16.00;;;17.60;99.90;;;;;;4960360;28;20097;-68
2023/04/17 12:18:14;;;;;;;27.88;16.20;;;17.10;99.90;;;;;;4963627;28;20031;-68
2023/04/17 12:20:39;;;;;;;21.95;16.40;;;16.80;99.90;;;;;;4964669;28;20046;-68
2023/04/17 12:23:05;;;;;;;21.13;16.50;;;16.50;99.90;;;;;;4934749;28;20043;-68
2023/04/17 12:25:33;;;;;;;23.83;16.83;;;16.30;99.90;;;;;;4946657;29;20379;-68
2023/04/17 12:28:03;;;;;;;24.55;17.25;;;16.10;99.90;;;;;;4969945;28;20054;-68
2023/04/17 12:30:29;;;;;;;27.25;17.83;;;16.00;99.90;;;;;;4950776;28;20529;-68
2023/04/17 12:32:55;;;;;;;24.88;18.45;;;16.00;99.90;;;;;;4956147;28;20074;-69